KMZZ/MZZ METAR and TAF weather

Enter ICAO airport designator
Station Type Date Time Source
KMZZ METAR 2022/01/23 11:15 UTC NOAA

KMZZ 231115Z AUTO 20015KT 10SM SCT035 OVC041 M03/M07 A2982 RMK AO2 T10311075


Station Type Date Time Source
KMZZ Decoded METAR 2022/01/23 11:15 UTC NOAA

Station name not available
Jan 23, 2022 - 06:15 AM EST / 2022.01.23 1115 UTC
Wind: from the SSW (200 degrees) at 17 MPH (15 KT):0
Visibility: 10 mile(s):0
Sky conditions: overcast
Temperature: 26.4 F (-3.1 C)
Windchill: 14 F (-10 C):1
Dew Point: 18.5 F (-7.5 C)
Relative Humidity: 71%
Pressure (altimeter): 29.82 in. Hg (1009 hPa)
ob: KMZZ 231115Z AUTO 20015KT 10SM SCT035 OVC041 M03/M07 A2982 RMK AO2 T10311075
cycle: 11

Station Type Date Time Source
KMZZ TAF UTC NOAA

Error!

Example: see airport list